sensor_id;sensor_type;location;lat;lon;timestamp;P1;durP1;ratioP1;P2;durP2;ratioP2
16994;SDS011;8614;48.522;9.206;2022-11-15T03:00:37;17.07;;;15.87;;
16994;SDS011;8614;48.522;9.206;2022-11-15T03:06:42;17.67;;;16.10;;
16994;SDS011;8614;48.522;9.206;2022-11-15T03:09:32;16.93;;;15.50;;
16994;SDS011;8614;48.522;9.206;2022-11-15T03:12:22;17.07;;;15.77;;
16994;SDS011;8614;48.522;9.206;2022-11-15T03:15:13;17.87;;;16.40;;
16994;SDS011;8614;48.522;9.206;2022-11-15T03:18:10;17.60;;;16.23;;
16994;SDS011;8614;48.522;9.206;2022-11-15T03:21:02;17.27;;;15.87;;
16994;SDS011;8614;48.522;9.206;2022-11-15T03:23:51;17.30;;;15.90;;
16994;SDS011;8614;48.522;9.206;2022-11-15T03:26:38;17.23;;;15.90;;
16994;SDS011;8614;48.522;9.206;2022-11-15T03:29:26;18.73;;;17.33;;
16994;SDS011;8614;48.522;9.206;2022-11-15T03:32:15;18.23;;;16.83;;
16994;SDS011;8614;48.522;9.206;2022-11-15T03:35:06;17.80;;;16.40;;
16994;SDS011;8614;48.522;9.206;2022-11-15T03:37:54;18.00;;;16.50;;
16994;SDS011;8614;48.522;9.206;2022-11-15T03:40:46;17.70;;;16.40;;
16994;SDS011;8614;48.522;9.206;2022-11-15T03:43:39;17.30;;;16.00;;
16994;SDS011;8614;48.522;9.206;2022-11-15T03:46:32;18.13;;;16.53;;
16994;SDS011;8614;48.522;9.206;2022-11-15T03:49:22;17.83;;;16.53;;
16994;SDS011;8614;48.522;9.206;2022-11-15T03:52:13;18.23;;;16.90;;
16994;SDS011;8614;48.522;9.206;2022-11-15T03:55:03;17.67;;;16.37;;
16994;SDS011;8614;48.522;9.206;2022-11-15T03:57:52;17.77;;;16.47;;
16994;SDS011;8614;48.522;9.206;2022-11-15T04:00:40;18.93;;;17.43;;
16994;SDS011;8614;48.522;9.206;2022-11-15T04:03:26;18.40;;;17.00;;
16994;SDS011;8614;48.522;9.206;2022-11-15T04:06:12;18.40;;;17.00;;
16994;SDS011;8614;48.522;9.206;2022-11-15T04:08:58;18.27;;;16.87;;
16994;SDS011;8614;48.522;9.206;2022-11-15T04:11:44;18.57;;;17.17;;
16994;SDS011;8614;48.522;9.206;2022-11-15T04:14:30;19.17;;;17.83;;
16994;SDS011;8614;48.522;9.206;2022-11-15T04:17:15;18.33;;;16.97;;
16994;SDS011;8614;48.522;9.206;2022-11-15T04:20:01;18.93;;;17.40;;
16994;SDS011;8614;48.522;9.206;2022-11-15T04:23:06;18.77;;;17.33;;
16994;SDS011;8614;48.522;9.206;2022-11-15T04:26:14;20.13;;;18.33;;
16994;SDS011;8614;48.522;9.206;2022-11-15T04:29:02;19.33;;;17.93;;
16994;SDS011;8614;48.522;9.206;2022-11-15T04:32:06;19.80;;;18.03;;
16994;SDS011;8614;48.522;9.206;2022-11-15T04:34:52;19.13;;;17.60;;
16994;SDS011;8614;48.522;9.206;2022-11-15T04:37:37;19.40;;;17.90;;
16994;SDS011;8614;48.522;9.206;2022-11-15T04:40:23;18.07;;;16.67;;
16994;SDS011;8614;48.522;9.206;2022-11-15T04:43:10;19.33;;;17.83;;
16994;SDS011;8614;48.522;9.206;2022-11-15T04:45:55;19.50;;;18.00;;
16994;SDS011;8614;48.522;9.206;2022-11-15T04:48:41;19.27;;;17.87;;
16994;SDS011;8614;48.522;9.206;2022-11-15T04:51:26;19.20;;;17.80;;
16994;SDS011;8614;48.522;9.206;2022-11-15T04:54:12;19.00;;;17.60;;
16994;SDS011;8614;48.522;9.206;2022-11-15T04:56:58;18.83;;;17.43;;
16994;SDS011;8614;48.522;9.206;2022-11-15T04:59:45;18.67;;;17.37;;
16994;SDS011;8614;48.522;9.206;2022-11-15T05:02:30;20.00;;;18.40;;
16994;SDS011;8614;48.522;9.206;2022-11-15T05:05:29;19.70;;;18.10;;
16994;SDS011;8614;48.522;9.206;2022-11-15T05:08:15;19.80;;;18.20;;
16994;SDS011;8614;48.522;9.206;2022-11-15T05:11:01;20.20;;;18.60;;
16994;SDS011;8614;48.522;9.206;2022-11-15T05:13:46;19.80;;;18.30;;
16994;SDS011;8614;48.522;9.206;2022-11-15T05:16:33;18.83;;;17.47;;
16994;SDS011;8614;48.522;9.206;2022-11-15T05:19:19;19.33;;;17.73;;
16994;SDS011;8614;48.522;9.206;2022-11-15T05:22:04;18.33;;;17.13;;
16994;SDS011;8614;48.522;9.206;2022-11-15T05:24:50;18.70;;;17.40;;
16994;SDS011;8614;48.522;9.206;2022-11-15T05:27:36;19.97;;;18.37;;
16994;SDS011;8614;48.522;9.206;2022-11-15T05:30:21;21.13;;;19.53;;
16994;SDS011;8614;48.522;9.206;2022-11-15T05:33:08;20.33;;;18.77;;
16994;SDS011;8614;48.522;9.206;2022-11-15T05:35:54;19.70;;;18.30;;
16994;SDS011;8614;48.522;9.206;2022-11-15T05:38:44;20.00;;;18.63;;
16994;SDS011;8614;48.522;9.206;2022-11-15T05:41:31;19.27;;;17.87;;
16994;SDS011;8614;48.522;9.206;2022-11-15T05:44:19;20.67;;;18.87;;
16994;SDS011;8614;48.522;9.206;2022-11-15T05:47:06;20.47;;;19.00;;
16994;SDS011;8614;48.522;9.206;2022-11-15T05:49:56;20.73;;;19.17;;
16994;SDS011;8614;48.522;9.206;2022-11-15T05:52:42;21.90;;;20.20;;
16994;SDS011;8614;48.522;9.206;2022-11-15T05:55:28;20.90;;;19.30;;
16994;SDS011;8614;48.522;9.206;2022-11-15T05:58:13;20.77;;;19.13;;
16994;SDS011;8614;48.522;9.206;2022-11-15T06:00:59;21.23;;;19.63;;
16994;SDS011;8614;48.522;9.206;2022-11-15T06:03:45;21.77;;;20.07;;
16994;SDS011;8614;48.522;9.206;2022-11-15T06:06:32;20.43;;;18.93;;
16994;SDS011;8614;48.522;9.206;2022-11-15T06:09:17;20.63;;;19.20;;
16994;SDS011;8614;48.522;9.206;2022-11-15T06:12:03;20.97;;;19.40;;
16994;SDS011;8614;48.522;9.206;2022-11-15T06:14:48;21.57;;;19.97;;
16994;SDS011;8614;48.522;9.206;2022-11-15T06:17:34;21.23;;;19.63;;
16994;SDS011;8614;48.522;9.206;2022-11-15T06:20:19;21.60;;;20.00;;
16994;SDS011;8614;48.522;9.206;2022-11-15T06:23:07;22.13;;;20.33;;
16994;SDS011;8614;48.522;9.206;2022-11-15T06:25:52;21.27;;;19.77;;
16994;SDS011;8614;48.522;9.206;2022-11-15T06:28:38;21.90;;;20.13;;
16994;SDS011;8614;48.522;9.206;2022-11-15T06:31:23;21.03;;;19.43;;
16994;SDS011;8614;48.522;9.206;2022-11-15T06:34:09;21.43;;;19.83;;
16994;SDS011;8614;48.522;9.206;2022-11-15T06:36:54;21.30;;;19.73;;
16994;SDS011;8614;48.522;9.206;2022-11-15T06:39:41;21.00;;;19.40;;
16994;SDS011;8614;48.522;9.206;2022-11-15T06:42:26;21.10;;;19.60;;
16994;SDS011;8614;48.522;9.206;2022-11-15T06:45:12;21.97;;;20.20;;
16994;SDS011;8614;48.522;9.206;2022-11-15T06:47:57;20.90;;;19.40;;
16994;SDS011;8614;48.522;9.206;2022-11-15T06:50:48;21.20;;;19.70;;
16994;SDS011;8614;48.522;9.206;2022-11-15T06:53:36;21.03;;;19.33;;
16994;SDS011;8614;48.522;9.206;2022-11-15T06:56:22;21.23;;;19.63;;
16994;SDS011;8614;48.522;9.206;2022-11-15T06:59:07;20.27;;;18.87;;
16994;SDS011;8614;48.522;9.206;2022-11-15T07:01:53;21.07;;;19.47;;
16994;SDS011;8614;48.522;9.206;2022-11-15T07:04:39;20.60;;;19.20;;
16994;SDS011;8614;48.522;9.206;2022-11-15T07:07:24;20.50;;;19.00;;
16994;SDS011;8614;48.522;9.206;2022-11-15T07:10:10;19.70;;;18.30;;
16994;SDS011;8614;48.522;9.206;2022-11-15T07:12:57;21.63;;;19.93;;
16994;SDS011;8614;48.522;9.206;2022-11-15T07:15:42;21.53;;;19.93;;
16994;SDS011;8614;48.522;9.206;2022-11-15T07:18:28;21.40;;;19.90;;
16994;SDS011;8614;48.522;9.206;2022-11-15T07:21:13;20.97;;;19.37;;
16994;SDS011;8614;48.522;9.206;2022-11-15T07:23:59;20.93;;;19.33;;
16994;SDS011;8614;48.522;9.206;2022-11-15T07:26:44;20.07;;;18.47;;
16994;SDS011;8614;48.522;9.206;2022-11-15T07:29:31;20.23;;;18.73;;
16994;SDS011;8614;48.522;9.206;2022-11-15T07:32:17;18.90;;;17.60;;
16994;SDS011;8614;48.522;9.206;2022-11-15T07:35:02;20.20;;;18.67;;
16994;SDS011;8614;48.522;9.206;2022-11-15T07:37:55;18.43;;;17.10;;
16994;SDS011;8614;48.522;9.206;2022-11-15T07:40:41;19.40;;;17.93;;
16994;SDS011;8614;48.522;9.206;2022-11-15T07:43:27;18.47;;;17.17;;
16994;SDS011;8614;48.522;9.206;2022-11-15T07:46:14;18.53;;;17.13;;
16994;SDS011;8614;48.522;9.206;2022-11-15T07:49:00;19.87;;;18.37;;
16994;SDS011;8614;48.522;9.206;2022-11-15T07:51:45;18.60;;;17.10;;
16994;SDS011;8614;48.522;9.206;2022-11-15T07:54:31;18.73;;;17.23;;
16994;SDS011;8614;48.522;9.206;2022-11-15T07:57:17;19.30;;;18.00;;
16994;SDS011;8614;48.522;9.206;2022-11-15T08:00:03;15.20;;;14.13;;
16994;SDS011;8614;48.522;9.206;2022-11-15T08:02:51;8.50;;;7.60;;
16994;SDS011;8614;48.522;9.206;2022-11-15T08:05:37;9.70;;;7.40;;
16994;SDS011;8614;48.522;9.206;2022-11-15T08:08:24;17.23;;;15.93;;
16994;SDS011;8614;48.522;9.206;2022-11-15T08:11:10;16.40;;;15.20;;
16994;SDS011;8614;48.522;9.206;2022-11-15T08:13:55;11.70;;;10.77;;
16994;SDS011;8614;48.522;9.206;2022-11-15T08:16:41;9.53;;;8.63;;
16994;SDS011;8614;48.522;9.206;2022-11-15T08:19:28;17.10;;;15.80;;
16994;SDS011;8614;48.522;9.206;2022-11-15T08:22:13;16.23;;;15.07;;
16994;SDS011;8614;48.522;9.206;2022-11-15T08:24:59;15.90;;;14.77;;
16994;SDS011;8614;48.522;9.206;2022-11-15T08:27:45;16.30;;;15.10;;
16994;SDS011;8614;48.522;9.206;2022-11-15T08:30:33;16.20;;;15.00;;
16994;SDS011;8614;48.522;9.206;2022-11-15T08:33:21;15.33;;;14.20;;
16994;SDS011;8614;48.522;9.206;2022-11-15T08:36:10;15.03;;;14.00;;
16994;SDS011;8614;48.522;9.206;2022-11-15T08:38:57;15.93;;;14.83;;
16994;SDS011;8614;48.522;9.206;2022-11-15T08:41:43;15.27;;;14.27;;
16994;SDS011;8614;48.522;9.206;2022-11-15T08:44:29;15.47;;;14.27;;
16994;SDS011;8614;48.522;9.206;2022-11-15T08:47:14;15.20;;;14.10;;
16994;SDS011;8614;48.522;9.206;2022-11-15T08:50:00;15.23;;;14.13;;
16994;SDS011;8614;48.522;9.206;2022-11-15T08:52:47;14.67;;;13.67;;
16994;SDS011;8614;48.522;9.206;2022-11-15T08:55:32;15.37;;;14.27;;
16994;SDS011;8614;48.522;9.206;2022-11-15T08:58:21;14.77;;;13.77;;
16994;SDS011;8614;48.522;9.206;2022-11-15T09:01:13;14.90;;;13.90;;
16994;SDS011;8614;48.522;9.206;2022-11-15T09:04:00;15.13;;;14.07;;
16994;SDS011;8614;48.522;9.206;2022-11-15T09:06:47;6.93;;;6.23;;
16994;SDS011;8614;48.522;9.206;2022-11-15T09:09:34;8.03;;;7.33;;
16994;SDS011;8614;48.522;9.206;2022-11-15T09:12:20;7.13;;;6.37;;
16994;SDS011;8614;48.522;9.206;2022-11-15T09:15:06;6.90;;;5.93;;
16994;SDS011;8614;48.522;9.206;2022-11-15T09:17:52;10.63;;;9.77;;
16994;SDS011;8614;48.522;9.206;2022-11-15T09:20:38;6.47;;;5.73;;
16994;SDS011;8614;48.522;9.206;2022-11-15T09:23:24;9.80;;;9.10;;
16994;SDS011;8614;48.522;9.206;2022-11-15T09:26:11;7.43;;;6.73;;
16994;SDS011;8614;48.522;9.206;2022-11-15T09:28:57;7.50;;;6.80;;
16994;SDS011;8614;48.522;9.206;2022-11-15T09:31:43;6.73;;;6.03;;
16994;SDS011;8614;48.522;9.206;2022-11-15T09:34:28;9.47;;;8.53;;
16994;SDS011;8614;48.522;9.206;2022-11-15T09:37:14;15.37;;;14.17;;
16994;SDS011;8614;48.522;9.206;2022-11-15T09:40:00;11.60;;;10.70;;
16994;SDS011;8614;48.522;9.206;2022-11-15T09:42:50;11.40;;;10.50;;
16994;SDS011;8614;48.522;9.206;2022-11-15T09:45:48;7.07;;;6.23;;
16994;SDS011;8614;48.522;9.206;2022-11-15T09:48:50;15.27;;;14.17;;
16994;SDS011;8614;48.522;9.206;2022-11-15T09:51:41;13.77;;;12.67;;
16994;SDS011;8614;48.522;9.206;2022-11-15T09:54:16;16.53;;;15.20;;
16994;SDS011;8614;48.522;9.206;2022-11-15T09:56:51;16.70;;;15.33;;
16994;SDS011;8614;48.522;9.206;2022-11-15T09:59:35;8.83;;;8.03;;
16994;SDS011;8614;48.522;9.206;2022-11-15T10:02:23;8.77;;;7.97;;
16994;SDS011;8614;48.522;9.206;2022-11-15T10:05:03;15.10;;;14.00;;
16994;SDS011;8614;48.522;9.206;2022-11-15T10:07:31;15.43;;;14.33;;
16994;SDS011;8614;48.522;9.206;2022-11-15T10:10:09;15.53;;;14.33;;
16994;SDS011;8614;48.522;9.206;2022-11-15T10:12:41;13.50;;;12.40;;
16994;SDS011;8614;48.522;9.206;2022-11-15T10:15:16;10.10;;;9.20;;
16994;SDS011;8614;48.522;9.206;2022-11-15T10:20:46;11.60;;;10.70;;
16994;SDS011;8614;48.522;9.206;2022-11-15T10:23:16;10.97;;;10.07;;
16994;SDS011;8614;48.522;9.206;2022-11-15T10:25:45;7.63;;;6.93;;
16994;SDS011;8614;48.522;9.206;2022-11-15T10:28:14;5.77;;;5.27;;
16994;SDS011;8614;48.522;9.206;2022-11-15T10:30:44;7.90;;;7.20;;
16994;SDS011;8614;48.522;9.206;2022-11-15T10:33:17;5.50;;;5.00;;
16994;SDS011;8614;48.522;9.206;2022-11-15T10:36:19;10.80;;;10.00;;
16994;SDS011;8614;48.522;9.206;2022-11-15T10:38:53;14.10;;;12.97;;
16994;SDS011;8614;48.522;9.206;2022-11-15T10:41:22;6.07;;;5.47;;
16994;SDS011;8614;48.522;9.206;2022-11-15T10:44:10;14.27;;;13.27;;
16994;SDS011;8614;48.522;9.206;2022-11-15T10:47:04;15.13;;;13.83;;
16994;SDS011;8614;48.522;9.206;2022-11-15T10:49:52;7.13;;;5.65;;
16994;SDS011;8614;48.522;9.206;2022-11-15T10:52:20;5.93;;;5.20;;
16994;SDS011;8614;48.522;9.206;2022-11-15T10:54:48;14.57;;;13.67;;
16994;SDS011;8614;48.522;9.206;2022-11-15T10:57:18;12.73;;;11.83;;
16994;SDS011;8614;48.522;9.206;2022-11-15T10:59:48;11.97;;;11.03;;
16994;SDS011;8614;48.522;9.206;2022-11-15T11:02:28;10.77;;;9.80;;
16994;SDS011;8614;48.522;9.206;2022-11-15T11:04:58;10.67;;;9.90;;
16994;SDS011;8614;48.522;9.206;2022-11-15T11:07:26;14.23;;;13.23;;
16994;SDS011;8614;48.522;9.206;2022-11-15T11:09:59;8.33;;;7.67;;
16994;SDS011;8614;48.522;9.206;2022-11-15T11:12:29;6.90;;;6.27;;
16994;SDS011;8614;48.522;9.206;2022-11-15T11:14:58;6.47;;;5.87;;
16994;SDS011;8614;48.522;9.206;2022-11-15T11:17:32;5.57;;;5.07;;
16994;SDS011;8614;48.522;9.206;2022-11-15T11:20:10;6.03;;;5.43;;
16994;SDS011;8614;48.522;9.206;2022-11-15T11:22:50;11.53;;;10.73;;
16994;SDS011;8614;48.522;9.206;2022-11-15T11:25:28;5.73;;;5.23;;
16994;SDS011;8614;48.522;9.206;2022-11-15T11:28:11;11.13;;;10.27;;
16994;SDS011;8614;48.522;9.206;2022-11-15T11:30:52;7.63;;;7.03;;
16994;SDS011;8614;48.522;9.206;2022-11-15T11:33:29;6.83;;;6.23;;
16994;SDS011;8614;48.522;9.206;2022-11-15T11:36:02;14.77;;;13.73;;
16994;SDS011;8614;48.522;9.206;2022-11-15T11:38:40;5.70;;;5.10;;
16994;SDS011;8614;48.522;9.206;2022-11-15T11:41:17;6.53;;;5.93;;
16994;SDS011;8614;48.522;9.206;2022-11-15T11:43:58;5.67;;;5.17;;
16994;SDS011;8614;48.522;9.206;2022-11-15T11:46:36;5.20;;;4.70;;
16994;SDS011;8614;48.522;9.206;2022-11-15T11:49:15;5.33;;;4.37;;
16994;SDS011;8614;48.522;9.206;2022-11-15T11:51:47;5.07;;;4.57;;
16994;SDS011;8614;48.522;9.206;2022-11-15T11:54:19;4.97;;;4.03;;
16994;SDS011;8614;48.522;9.206;2022-11-15T11:56:50;4.10;;;3.80;;
16994;SDS011;8614;48.522;9.206;2022-11-15T11:59:21;5.00;;;4.60;;
16994;SDS011;8614;48.522;9.206;2022-11-15T12:01:54;6.03;;;5.43;;
16994;SDS011;8614;48.522;9.206;2022-11-15T12:04:26;5.07;;;4.67;;
16994;SDS011;8614;48.522;9.206;2022-11-15T12:06:57;6.93;;;6.33;;
16994;SDS011;8614;48.522;9.206;2022-11-15T12:09:30;7.30;;;6.70;;
16994;SDS011;8614;48.522;9.206;2022-11-15T12:12:01;5.07;;;4.57;;
16994;SDS011;8614;48.522;9.206;2022-11-15T12:14:35;7.77;;;7.07;;
16994;SDS011;8614;48.522;9.206;2022-11-15T12:17:09;5.67;;;5.13;;
16994;SDS011;8614;48.522;9.206;2022-11-15T12:19:38;5.77;;;5.27;;
16994;SDS011;8614;48.522;9.206;2022-11-15T12:22:10;4.13;;;3.73;;
16994;SDS011;8614;48.522;9.206;2022-11-15T12:24:43;7.97;;;7.27;;
16994;SDS011;8614;48.522;9.206;2022-11-15T12:27:16;6.53;;;5.97;;
16994;SDS011;8614;48.522;9.206;2022-11-15T12:29:46;10.00;;;9.20;;
16994;SDS011;8614;48.522;9.206;2022-11-15T12:32:24;11.63;;;10.83;;
16994;SDS011;8614;48.522;9.206;2022-11-15T12:34:55;12.23;;;11.33;;
16994;SDS011;8614;48.522;9.206;2022-11-15T12:37:33;12.10;;;11.30;;
16994;SDS011;8614;48.522;9.206;2022-11-15T12:40:31;12.57;;;11.77;;
16994;SDS011;8614;48.522;9.206;2022-11-15T12:45:50;12.10;;;11.30;;
16994;SDS011;8614;48.522;9.206;2022-11-15T12:57:31;8.67;;;6.50;;
16994;SDS011;8614;48.522;9.206;2022-11-15T13:03:23;13.67;;;12.70;;
16994;SDS011;8614;48.522;9.206;2022-11-15T13:06:02;7.50;;;6.10;;
16994;SDS011;8614;48.522;9.206;2022-11-15T13:08:39;6.00;;;5.00;;
16994;SDS011;8614;48.522;9.206;2022-11-15T13:17:19;11.10;;;10.20;;
16994;SDS011;8614;48.522;9.206;2022-11-15T13:20:11;4.63;;;4.23;;
16994;SDS011;8614;48.522;9.206;2022-11-15T13:22:46;5.87;;;5.37;;
16994;SDS011;8614;48.522;9.206;2022-11-15T13:25:18;8.63;;;7.93;;
16994;SDS011;8614;48.522;9.206;2022-11-15T13:27:53;10.20;;;9.30;;
16994;SDS011;8614;48.522;9.206;2022-11-15T13:30:24;6.03;;;5.30;;
16994;SDS011;8614;48.522;9.206;2022-11-15T13:32:53;6.90;;;6.40;;
16994;SDS011;8614;48.522;9.206;2022-11-15T13:35:22;9.70;;;8.90;;
16994;SDS011;8614;48.522;9.206;2022-11-15T13:37:51;12.87;;;12.07;;
16994;SDS011;8614;48.522;9.206;2022-11-15T13:40:21;8.43;;;7.67;;
16994;SDS011;8614;48.522;9.206;2022-11-15T13:42:49;7.03;;;6.43;;
16994;SDS011;8614;48.522;9.206;2022-11-15T13:45:17;11.97;;;11.07;;
16994;SDS011;8614;48.522;9.206;2022-11-15T13:47:51;12.87;;;11.97;;
16994;SDS011;8614;48.522;9.206;2022-11-15T13:50:20;12.27;;;11.27;;
16994;SDS011;8614;48.522;9.206;2022-11-15T13:53:05;11.73;;;11.03;;
16994;SDS011;8614;48.522;9.206;2022-11-15T13:55:32;12.83;;;11.93;;
16994;SDS011;8614;48.522;9.206;2022-11-15T13:58:00;12.10;;;11.20;;
16994;SDS011;8614;48.522;9.206;2022-11-15T14:00:33;11.80;;;11.00;;
16994;SDS011;8614;48.522;9.206;2022-11-15T14:03:15;11.70;;;10.90;;
16994;SDS011;8614;48.522;9.206;2022-11-15T14:05:45;11.80;;;11.00;;
16994;SDS011;8614;48.522;9.206;2022-11-15T14:08:30;11.93;;;11.23;;
16994;SDS011;8614;48.522;9.206;2022-11-15T14:11:12;12.47;;;11.63;;
16994;SDS011;8614;48.522;9.206;2022-11-15T14:13:41;13.17;;;12.03;;
16994;SDS011;8614;48.522;9.206;2022-11-15T14:16:31;12.83;;;11.90;;
16994;SDS011;8614;48.522;9.206;2022-11-15T14:19:00;13.30;;;12.37;;
16994;SDS011;8614;48.522;9.206;2022-11-15T14:21:27;12.57;;;11.77;;
16994;SDS011;8614;48.522;9.206;2022-11-15T14:26:44;12.80;;;11.90;;
16994;SDS011;8614;48.522;9.206;2022-11-15T14:29:23;13.20;;;12.20;;
16994;SDS011;8614;48.522;9.206;2022-11-15T14:31:51;12.70;;;11.80;;
16994;SDS011;8614;48.522;9.206;2022-11-15T14:34:18;13.40;;;12.40;;
16994;SDS011;8614;48.522;9.206;2022-11-15T14:36:46;13.97;;;12.87;;
16994;SDS011;8614;48.522;9.206;2022-11-15T14:39:13;15.67;;;14.13;;
16994;SDS011;8614;48.522;9.206;2022-11-15T14:41:42;14.77;;;13.50;;
16994;SDS011;8614;48.522;9.206;2022-11-15T14:44:09;14.13;;;13.07;;
16994;SDS011;8614;48.522;9.206;2022-11-15T14:46:37;14.17;;;13.13;;
16994;SDS011;8614;48.522;9.206;2022-11-15T14:49:04;13.80;;;12.80;;
16994;SDS011;8614;48.522;9.206;2022-11-15T14:51:30;14.80;;;13.60;;
16994;SDS011;8614;48.522;9.206;2022-11-15T14:53:58;14.30;;;13.30;;
16994;SDS011;8614;48.522;9.206;2022-11-15T14:56:25;14.10;;;13.10;;
16994;SDS011;8614;48.522;9.206;2022-11-15T14:58:53;14.17;;;13.17;;
16994;SDS011;8614;48.522;9.206;2022-11-15T15:01:21;14.40;;;13.30;;
16994;SDS011;8614;48.522;9.206;2022-11-15T15:03:51;15.53;;;14.13;;
16994;SDS011;8614;48.522;9.206;2022-11-15T15:06:20;15.77;;;14.50;;
16994;SDS011;8614;48.522;9.206;2022-11-15T15:08:47;15.60;;;14.30;;
16994;SDS011;8614;48.522;9.206;2022-11-15T15:11:16;15.23;;;14.20;;
16994;SDS011;8614;48.522;9.206;2022-11-15T15:13:46;15.67;;;14.47;;
16994;SDS011;8614;48.522;9.206;2022-11-15T15:16:15;15.00;;;13.93;;
16994;SDS011;8614;48.522;9.206;2022-11-15T15:18:42;14.77;;;13.77;;
16994;SDS011;8614;48.522;9.206;2022-11-15T15:21:15;15.17;;;13.93;;
16994;SDS011;8614;48.522;9.206;2022-11-15T15:23:46;15.67;;;14.57;;
16994;SDS011;8614;48.522;9.206;2022-11-15T15:26:13;16.60;;;15.20;;
16994;SDS011;8614;48.522;9.206;2022-11-15T15:28:40;16.93;;;15.63;;
16994;SDS011;8614;48.522;9.206;2022-11-15T15:31:10;17.07;;;15.73;;
16994;SDS011;8614;48.522;9.206;2022-11-15T15:33:39;17.00;;;15.70;;
16994;SDS011;8614;48.522;9.206;2022-11-15T15:36:09;17.60;;;16.20;;
16994;SDS011;8614;48.522;9.206;2022-11-15T15:38:37;16.70;;;15.30;;
16994;SDS011;8614;48.522;9.206;2022-11-15T15:41:08;17.53;;;16.13;;
16994;SDS011;8614;48.522;9.206;2022-11-15T15:43:36;18.13;;;16.57;;
16994;SDS011;8614;48.522;9.206;2022-11-15T15:46:04;17.83;;;16.47;;
16994;SDS011;8614;48.522;9.206;2022-11-15T15:48:33;18.50;;;17.10;;
16994;SDS011;8614;48.522;9.206;2022-11-15T15:51:03;17.57;;;16.07;;
16994;SDS011;8614;48.522;9.206;2022-11-15T15:53:30;16.87;;;15.67;;
16994;SDS011;8614;48.522;9.206;2022-11-15T15:55:57;17.33;;;16.03;;
16994;SDS011;8614;48.522;9.206;2022-11-15T15:58:24;17.30;;;16.00;;
16994;SDS011;8614;48.522;9.206;2022-11-15T16:00:51;16.70;;;15.40;;
16994;SDS011;8614;48.522;9.206;2022-11-15T16:03:18;16.97;;;15.57;;
16994;SDS011;8614;48.522;9.206;2022-11-15T16:05:45;16.93;;;15.63;;
16994;SDS011;8614;48.522;9.206;2022-11-15T16:08:17;16.40;;;15.20;;
16994;SDS011;8614;48.522;9.206;2022-11-15T16:10:45;17.37;;;15.97;;
16994;SDS011;8614;48.522;9.206;2022-11-15T16:13:13;16.50;;;15.30;;
16994;SDS011;8614;48.522;9.206;2022-11-15T16:15:40;16.57;;;15.37;;
16994;SDS011;8614;48.522;9.206;2022-11-15T16:18:12;17.40;;;15.90;;
16994;SDS011;8614;48.522;9.206;2022-11-15T16:20:42;17.00;;;15.70;;
16994;SDS011;8614;48.522;9.206;2022-11-15T16:23:11;16.73;;;15.53;;
16994;SDS011;8614;48.522;9.206;2022-11-15T16:25:41;11.73;;;10.63;;
16994;SDS011;8614;48.522;9.206;2022-11-15T16:28:14;9.87;;;8.80;;
16994;SDS011;8614;48.522;9.206;2022-11-15T16:30:43;8.27;;;7.40;;
16994;SDS011;8614;48.522;9.206;2022-11-15T16:33:10;7.40;;;6.70;;
16994;SDS011;8614;48.522;9.206;2022-11-15T16:35:37;7.70;;;6.73;;
16994;SDS011;8614;48.522;9.206;2022-11-15T16:38:04;9.33;;;8.50;;
16994;SDS011;8614;48.522;9.206;2022-11-15T16:40:36;7.90;;;7.17;;
16994;SDS011;8614;48.522;9.206;2022-11-15T16:43:16;12.60;;;11.70;;
16994;SDS011;8614;48.522;9.206;2022-11-15T16:45:52;9.70;;;8.73;;
16994;SDS011;8614;48.522;9.206;2022-11-15T16:48:36;15.33;;;14.40;;
16994;SDS011;8614;48.522;9.206;2022-11-15T16:55:03;15.40;;;13.97;;
16994;SDS011;8614;48.522;9.206;2022-11-15T16:58:08;15.17;;;14.17;;
16994;SDS011;8614;48.522;9.206;2022-11-15T17:00:40;14.87;;;13.77;;
16994;SDS011;8614;48.522;9.206;2022-11-15T17:03:07;11.63;;;10.70;;
16994;SDS011;8614;48.522;9.206;2022-11-15T17:05:57;7.63;;;6.43;;
16994;SDS011;8614;48.522;9.206;2022-11-15T17:08:31;8.63;;;6.57;;
16994;SDS011;8614;48.522;9.206;2022-11-15T17:10:58;9.97;;;7.13;;
16994;SDS011;8614;48.522;9.206;2022-11-15T17:13:25;10.87;;;9.97;;
16994;SDS011;8614;48.522;9.206;2022-11-15T17:16:03;5.70;;;5.10;;
16994;SDS011;8614;48.522;9.206;2022-11-15T17:19:10;9.40;;;8.50;;
16994;SDS011;8614;48.522;9.206;2022-11-15T17:21:39;8.10;;;7.40;;
16994;SDS011;8614;48.522;9.206;2022-11-15T17:24:07;6.70;;;6.07;;
16994;SDS011;8614;48.522;9.206;2022-11-15T17:26:34;6.73;;;6.07;;
16994;SDS011;8614;48.522;9.206;2022-11-15T17:29:02;10.80;;;9.93;;
16994;SDS011;8614;48.522;9.206;2022-11-15T17:31:33;13.00;;;12.03;;
16994;SDS011;8614;48.522;9.206;2022-11-15T17:34:01;12.00;;;11.20;;
16994;SDS011;8614;48.522;9.206;2022-11-15T17:36:29;8.57;;;7.97;;
16994;SDS011;8614;48.522;9.206;2022-11-15T17:38:56;12.70;;;11.90;;
16994;SDS011;8614;48.522;9.206;2022-11-15T17:41:23;6.43;;;5.93;;
16994;SDS011;8614;48.522;9.206;2022-11-15T17:43:50;13.63;;;12.73;;
16994;SDS011;8614;48.522;9.206;2022-11-15T17:46:20;13.40;;;12.50;;
16994;SDS011;8614;48.522;9.206;2022-11-15T17:49:02;13.83;;;12.93;;
16994;SDS011;8614;48.522;9.206;2022-11-15T17:51:31;14.43;;;13.43;;
16994;SDS011;8614;48.522;9.206;2022-11-15T17:54:01;15.23;;;13.90;;
16994;SDS011;8614;48.522;9.206;2022-11-15T18:01:11;14.13;;;13.13;;
16994;SDS011;8614;48.522;9.206;2022-11-15T18:11:45;13.90;;;12.90;;
16994;SDS011;8614;48.522;9.206;2022-11-15T18:14:17;14.47;;;13.47;;
16994;SDS011;8614;48.522;9.206;2022-11-15T18:16:44;14.23;;;13.23;;
16994;SDS011;8614;48.522;9.206;2022-11-15T18:19:14;13.37;;;12.47;;
16994;SDS011;8614;48.522;9.206;2022-11-15T18:21:41;13.80;;;12.70;;
16994;SDS011;8614;48.522;9.206;2022-11-15T18:24:23;13.53;;;12.63;;
16994;SDS011;8614;48.522;9.206;2022-11-15T18:26:52;13.80;;;12.90;;
16994;SDS011;8614;48.522;9.206;2022-11-15T18:29:19;13.47;;;12.57;;
16994;SDS011;8614;48.522;9.206;2022-11-15T18:31:48;13.60;;;12.60;;
16994;SDS011;8614;48.522;9.206;2022-11-15T18:34:19;13.53;;;12.53;;
16994;SDS011;8614;48.522;9.206;2022-11-15T18:36:48;13.27;;;12.37;;
16994;SDS011;8614;48.522;9.206;2022-11-15T18:39:15;13.60;;;12.70;;
16994;SDS011;8614;48.522;9.206;2022-11-15T18:41:43;13.30;;;12.40;;
16994;SDS011;8614;48.522;9.206;2022-11-15T18:44:11;13.60;;;12.60;;
16994;SDS011;8614;48.522;9.206;2022-11-15T18:46:40;14.23;;;13.23;;
16994;SDS011;8614;48.522;9.206;2022-11-15T18:49:09;13.57;;;12.67;;
16994;SDS011;8614;48.522;9.206;2022-11-15T18:51:37;13.73;;;12.73;;
16994;SDS011;8614;48.522;9.206;2022-11-15T18:54:06;13.30;;;12.40;;
16994;SDS011;8614;48.522;9.206;2022-11-15T18:56:34;13.33;;;12.43;;
16994;SDS011;8614;48.522;9.206;2022-11-15T18:59:03;13.67;;;12.67;;
16994;SDS011;8614;48.522;9.206;2022-11-15T19:01:31;14.10;;;13.10;;
16994;SDS011;8614;48.522;9.206;2022-11-15T19:04:03;14.17;;;13.17;;
16994;SDS011;8614;48.522;9.206;2022-11-15T19:06:32;14.03;;;12.93;;
16994;SDS011;8614;48.522;9.206;2022-11-15T19:09:01;13.83;;;12.90;;
16994;SDS011;8614;48.522;9.206;2022-11-15T19:11:31;13.90;;;12.90;;
16994;SDS011;8614;48.522;9.206;2022-11-15T19:14:00;13.70;;;12.70;;
16994;SDS011;8614;48.522;9.206;2022-11-15T19:16:31;13.50;;;12.57;;
16994;SDS011;8614;48.522;9.206;2022-11-15T19:19:00;13.20;;;12.20;;
16994;SDS011;8614;48.522;9.206;2022-11-15T19:21:29;13.23;;;12.13;;
16994;SDS011;8614;48.522;9.206;2022-11-15T19:23:56;13.37;;;12.47;;
16994;SDS011;8614;48.522;9.206;2022-11-15T19:26:24;12.43;;;11.63;;
16994;SDS011;8614;48.522;9.206;2022-11-15T19:28:52;12.53;;;11.73;;
16994;SDS011;8614;48.522;9.206;2022-11-15T19:31:20;12.03;;;11.23;;
16994;SDS011;8614;48.522;9.206;2022-11-15T19:33:50;12.97;;;11.97;;